sensor_id;sensor_type;location;lat;lon;timestamp;P1;durP1;ratioP1;P2;durP2;ratioP2
11490;SDS011;5802;52.832;4.758;2023-07-29T00:01:56;1.42;;;1.20;;
11490;SDS011;5802;52.832;4.758;2023-07-29T00:04:23;1.70;;;1.30;;
11490;SDS011;5802;52.832;4.758;2023-07-29T00:06:53;2.40;;;1.27;;
11490;SDS011;5802;52.832;4.758;2023-07-29T00:09:19;1.42;;;1.30;;
11490;SDS011;5802;52.832;4.758;2023-07-29T00:11:47;1.70;;;1.40;;
11490;SDS011;5802;52.832;4.758;2023-07-29T00:14:14;1.60;;;1.30;;
11490;SDS011;5802;52.832;4.758;2023-07-29T00:16:41;1.55;;;1.10;;
11490;SDS011;5802;52.832;4.758;2023-07-29T00:19:08;2.08;;;1.15;;
11490;SDS011;5802;52.832;4.758;2023-07-29T00:21:34;2.92;;;1.30;;
11490;SDS011;5802;52.832;4.758;2023-07-29T00:24:01;1.30;;;1.20;;
11490;SDS011;5802;52.832;4.758;2023-07-29T00:26:28;1.83;;;1.40;;
11490;SDS011;5802;52.832;4.758;2023-07-29T00:28:56;1.25;;;1.15;;
11490;SDS011;5802;52.832;4.758;2023-07-29T00:31:22;1.50;;;1.20;;
11490;SDS011;5802;52.832;4.758;2023-07-29T00:33:49;1.50;;;1.23;;
11490;SDS011;5802;52.832;4.758;2023-07-29T00:36:17;1.30;;;1.15;;
11490;SDS011;5802;52.832;4.758;2023-07-29T00:38:44;1.60;;;1.15;;
11490;SDS011;5802;52.832;4.758;2023-07-29T00:41:13;1.40;;;1.30;;
11490;SDS011;5802;52.832;4.758;2023-07-29T00:43:40;1.30;;;1.20;;
11490;SDS011;5802;52.832;4.758;2023-07-29T00:46:09;1.95;;;1.40;;
11490;SDS011;5802;52.832;4.758;2023-07-29T00:48:37;2.70;;;1.33;;
11490;SDS011;5802;52.832;4.758;2023-07-29T00:51:04;1.30;;;1.20;;
11490;SDS011;5802;52.832;4.758;2023-07-29T00:53:31;1.50;;;1.02;;
11490;SDS011;5802;52.832;4.758;2023-07-29T00:55:58;1.27;;;1.17;;
11490;SDS011;5802;52.832;4.758;2023-07-29T00:58:25;1.08;;;0.98;;
11490;SDS011;5802;52.832;4.758;2023-07-29T01:00:52;1.58;;;1.40;;
11490;SDS011;5802;52.832;4.758;2023-07-29T01:03:21;1.48;;;1.10;;
11490;SDS011;5802;52.832;4.758;2023-07-29T01:05:50;1.50;;;1.02;;
11490;SDS011;5802;52.832;4.758;2023-07-29T01:08:26;1.63;;;1.30;;
11490;SDS011;5802;52.832;4.758;2023-07-29T01:11:01;1.60;;;1.17;;
11490;SDS011;5802;52.832;4.758;2023-07-29T01:13:41;1.13;;;1.02;;
11490;SDS011;5802;52.832;4.758;2023-07-29T01:16:15;1.52;;;1.42;;
11490;SDS011;5802;52.832;4.758;2023-07-29T01:18:47;1.80;;;1.40;;
11490;SDS011;5802;52.832;4.758;2023-07-29T01:21:15;1.88;;;1.33;;
11490;SDS011;5802;52.832;4.758;2023-07-29T01:23:44;1.98;;;1.30;;
11490;SDS011;5802;52.832;4.758;2023-07-29T01:26:11;1.20;;;1.10;;
11490;SDS011;5802;52.832;4.758;2023-07-29T01:28:38;1.63;;;1.20;;
11490;SDS011;5802;52.832;4.758;2023-07-29T01:31:07;1.10;;;1.00;;
11490;SDS011;5802;52.832;4.758;2023-07-29T01:33:39;1.38;;;1.20;;
11490;SDS011;5802;52.832;4.758;2023-07-29T01:36:13;2.78;;;1.17;;
11490;SDS011;5802;52.832;4.758;2023-07-29T01:38:44;2.25;;;1.38;;
11490;SDS011;5802;52.832;4.758;2023-07-29T01:41:13;1.67;;;1.08;;
11490;SDS011;5802;52.832;4.758;2023-07-29T01:43:41;1.38;;;1.20;;
11490;SDS011;5802;52.832;4.758;2023-07-29T01:46:09;1.55;;;1.10;;
11490;SDS011;5802;52.832;4.758;2023-07-29T01:48:36;1.88;;;1.30;;
11490;SDS011;5802;52.832;4.758;2023-07-29T01:51:03;1.20;;;1.05;;
11490;SDS011;5802;52.832;4.758;2023-07-29T01:53:30;1.42;;;1.13;;
11490;SDS011;5802;52.832;4.758;2023-07-29T01:55:58;1.30;;;1.02;;
11490;SDS011;5802;52.832;4.758;2023-07-29T01:58:25;1.77;;;1.35;;
11490;SDS011;5802;52.832;4.758;2023-07-29T02:00:51;1.48;;;1.35;;
11490;SDS011;5802;52.832;4.758;2023-07-29T02:03:18;1.23;;;1.13;;
11490;SDS011;5802;52.832;4.758;2023-07-29T02:05:45;1.70;;;1.20;;
11490;SDS011;5802;52.832;4.758;2023-07-29T02:08:11;1.20;;;1.02;;
11490;SDS011;5802;52.832;4.758;2023-07-29T02:10:39;1.10;;;1.00;;
11490;SDS011;5802;52.832;4.758;2023-07-29T02:13:07;1.10;;;1.00;;
11490;SDS011;5802;52.832;4.758;2023-07-29T02:15:34;1.63;;;1.27;;
11490;SDS011;5802;52.832;4.758;2023-07-29T02:18:00;1.75;;;1.20;;
11490;SDS011;5802;52.832;4.758;2023-07-29T02:20:31;1.60;;;1.30;;
11490;SDS011;5802;52.832;4.758;2023-07-29T02:22:58;1.20;;;1.02;;
11490;SDS011;5802;52.832;4.758;2023-07-29T02:25:24;1.92;;;1.17;;
11490;SDS011;5802;52.832;4.758;2023-07-29T02:27:51;1.73;;;1.05;;
11490;SDS011;5802;52.832;4.758;2023-07-29T02:30:19;2.95;;;1.20;;
11490;SDS011;5802;52.832;4.758;2023-07-29T02:32:46;1.30;;;1.13;;
11490;SDS011;5802;52.832;4.758;2023-07-29T02:35:13;1.30;;;1.20;;
11490;SDS011;5802;52.832;4.758;2023-07-29T02:37:40;1.52;;;1.10;;
11490;SDS011;5802;52.832;4.758;2023-07-29T02:40:07;1.55;;;1.10;;
11490;SDS011;5802;52.832;4.758;2023-07-29T02:42:34;1.30;;;1.20;;
11490;SDS011;5802;52.832;4.758;2023-07-29T02:45:01;2.67;;;1.13;;
11490;SDS011;5802;52.832;4.758;2023-07-29T02:47:29;1.80;;;1.05;;
11490;SDS011;5802;52.832;4.758;2023-07-29T02:49:56;1.40;;;1.30;;
11490;SDS011;5802;52.832;4.758;2023-07-29T02:52:22;1.70;;;1.20;;
11490;SDS011;5802;52.832;4.758;2023-07-29T02:54:49;1.63;;;1.10;;
11490;SDS011;5802;52.832;4.758;2023-07-29T02:57:16;1.42;;;1.15;;
11490;SDS011;5802;52.832;4.758;2023-07-29T02:59:43;1.13;;;1.00;;
11490;SDS011;5802;52.832;4.758;2023-07-29T03:02:10;1.30;;;0.95;;
11490;SDS011;5802;52.832;4.758;2023-07-29T03:04:38;1.70;;;1.13;;
11490;SDS011;5802;52.832;4.758;2023-07-29T03:07:05;1.88;;;1.10;;
11490;SDS011;5802;52.832;4.758;2023-07-29T03:09:31;1.92;;;1.20;;
11490;SDS011;5802;52.832;4.758;2023-07-29T03:11:59;1.33;;;1.02;;
11490;SDS011;5802;52.832;4.758;2023-07-29T03:14:25;1.33;;;0.90;;
11490;SDS011;5802;52.832;4.758;2023-07-29T03:16:52;1.30;;;1.15;;
11490;SDS011;5802;52.832;4.758;2023-07-29T03:19:19;1.65;;;1.00;;
11490;SDS011;5802;52.832;4.758;2023-07-29T03:21:47;1.52;;;1.00;;
11490;SDS011;5802;52.832;4.758;2023-07-29T03:24:13;1.60;;;1.27;;
11490;SDS011;5802;52.832;4.758;2023-07-29T03:26:40;1.27;;;0.98;;
11490;SDS011;5802;52.832;4.758;2023-07-29T03:29:07;1.55;;;1.00;;
11490;SDS011;5802;52.832;4.758;2023-07-29T03:31:33;1.48;;;1.00;;
11490;SDS011;5802;52.832;4.758;2023-07-29T03:34:00;1.65;;;1.20;;
11490;SDS011;5802;52.832;4.758;2023-07-29T03:36:27;1.60;;;1.15;;
11490;SDS011;5802;52.832;4.758;2023-07-29T03:38:55;1.55;;;1.20;;
11490;SDS011;5802;52.832;4.758;2023-07-29T03:41:23;1.23;;;1.08;;
11490;SDS011;5802;52.832;4.758;2023-07-29T03:43:50;1.38;;;1.10;;
11490;SDS011;5802;52.832;4.758;2023-07-29T03:46:16;1.17;;;1.05;;
11490;SDS011;5802;52.832;4.758;2023-07-29T03:48:46;1.30;;;1.00;;
11490;SDS011;5802;52.832;4.758;2023-07-29T03:51:13;1.45;;;1.23;;
11490;SDS011;5802;52.832;4.758;2023-07-29T03:53:39;1.83;;;1.00;;
11490;SDS011;5802;52.832;4.758;2023-07-29T03:56:08;1.77;;;1.17;;
11490;SDS011;5802;52.832;4.758;2023-07-29T03:58:34;1.30;;;1.10;;
11490;SDS011;5802;52.832;4.758;2023-07-29T04:01:01;1.40;;;1.13;;
11490;SDS011;5802;52.832;4.758;2023-07-29T04:03:29;1.17;;;1.05;;
11490;SDS011;5802;52.832;4.758;2023-07-29T04:05:56;1.30;;;1.10;;
11490;SDS011;5802;52.832;4.758;2023-07-29T04:08:22;2.13;;;1.13;;
11490;SDS011;5802;52.832;4.758;2023-07-29T04:10:49;1.52;;;1.10;;
11490;SDS011;5802;52.832;4.758;2023-07-29T04:13:17;1.67;;;1.20;;
11490;SDS011;5802;52.832;4.758;2023-07-29T04:15:44;1.75;;;1.10;;
11490;SDS011;5802;52.832;4.758;2023-07-29T04:18:11;1.95;;;1.15;;
11490;SDS011;5802;52.832;4.758;2023-07-29T04:20:38;1.63;;;1.13;;
11490;SDS011;5802;52.832;4.758;2023-07-29T04:23:04;1.88;;;1.20;;
11490;SDS011;5802;52.832;4.758;2023-07-29T04:25:31;1.75;;;0.90;;
11490;SDS011;5802;52.832;4.758;2023-07-29T04:27:58;1.60;;;1.10;;
11490;SDS011;5802;52.832;4.758;2023-07-29T04:30:26;1.83;;;1.10;;
11490;SDS011;5802;52.832;4.758;2023-07-29T04:32:52;1.83;;;1.20;;
11490;SDS011;5802;52.832;4.758;2023-07-29T04:35:19;1.60;;;1.20;;
11490;SDS011;5802;52.832;4.758;2023-07-29T04:37:46;2.05;;;1.10;;
11490;SDS011;5802;52.832;4.758;2023-07-29T04:40:13;1.88;;;0.95;;
11490;SDS011;5802;52.832;4.758;2023-07-29T04:42:40;1.92;;;1.10;;
11490;SDS011;5802;52.832;4.758;2023-07-29T04:45:07;1.60;;;1.20;;
11490;SDS011;5802;52.832;4.758;2023-07-29T04:47:35;1.48;;;1.23;;
11490;SDS011;5802;52.832;4.758;2023-07-29T04:50:02;1.60;;;1.20;;
11490;SDS011;5802;52.832;4.758;2023-07-29T04:52:28;1.77;;;1.17;;
11490;SDS011;5802;52.832;4.758;2023-07-29T04:54:55;2.47;;;1.27;;
11490;SDS011;5802;52.832;4.758;2023-07-29T04:57:22;2.25;;;1.50;;
11490;SDS011;5802;52.832;4.758;2023-07-29T04:59:49;1.25;;;1.05;;
11490;SDS011;5802;52.832;4.758;2023-07-29T05:02:15;2.30;;;0.90;;
11490;SDS011;5802;52.832;4.758;2023-07-29T05:04:43;2.75;;;1.17;;
11490;SDS011;5802;52.832;4.758;2023-07-29T05:07:10;1.58;;;1.02;;
11490;SDS011;5802;52.832;4.758;2023-07-29T05:09:37;1.55;;;0.95;;
11490;SDS011;5802;52.832;4.758;2023-07-29T05:12:04;1.42;;;1.10;;
11490;SDS011;5802;52.832;4.758;2023-07-29T05:14:31;1.20;;;1.10;;
11490;SDS011;5802;52.832;4.758;2023-07-29T05:16:58;1.65;;;1.10;;
11490;SDS011;5802;52.832;4.758;2023-07-29T05:19:25;3.08;;;1.23;;
11490;SDS011;5802;52.832;4.758;2023-07-29T05:21:53;1.65;;;0.98;;
11490;SDS011;5802;52.832;4.758;2023-07-29T05:24:20;1.55;;;1.10;;
11490;SDS011;5802;52.832;4.758;2023-07-29T05:26:47;1.40;;;1.10;;
11490;SDS011;5802;52.832;4.758;2023-07-29T05:29:14;1.15;;;0.95;;
11490;SDS011;5802;52.832;4.758;2023-07-29T05:31:41;2.50;;;1.10;;
11490;SDS011;5802;52.832;4.758;2023-07-29T05:34:08;1.42;;;1.15;;
11490;SDS011;5802;52.832;4.758;2023-07-29T05:36:34;1.67;;;1.27;;
11490;SDS011;5802;52.832;4.758;2023-07-29T05:39:02;1.27;;;1.08;;
11490;SDS011;5802;52.832;4.758;2023-07-29T05:41:29;1.83;;;0.90;;
11490;SDS011;5802;52.832;4.758;2023-07-29T05:43:56;1.65;;;1.20;;
11490;SDS011;5802;52.832;4.758;2023-07-29T05:46:22;2.15;;;1.27;;
11490;SDS011;5802;52.832;4.758;2023-07-29T05:48:49;1.92;;;1.30;;
11490;SDS011;5802;52.832;4.758;2023-07-29T05:51:16;2.33;;;1.15;;
11490;SDS011;5802;52.832;4.758;2023-07-29T05:53:42;1.50;;;1.15;;
11490;SDS011;5802;52.832;4.758;2023-07-29T05:56:10;1.30;;;1.20;;
11490;SDS011;5802;52.832;4.758;2023-07-29T05:58:37;1.58;;;1.15;;
11490;SDS011;5802;52.832;4.758;2023-07-29T06:01:04;1.55;;;1.08;;
11490;SDS011;5802;52.832;4.758;2023-07-29T06:03:31;2.00;;;1.10;;
11490;SDS011;5802;52.832;4.758;2023-07-29T06:05:57;1.70;;;1.10;;
11490;SDS011;5802;52.832;4.758;2023-07-29T06:08:23;1.77;;;1.00;;
11490;SDS011;5802;52.832;4.758;2023-07-29T06:10:53;1.67;;;1.25;;
11490;SDS011;5802;52.832;4.758;2023-07-29T06:13:21;2.75;;;1.30;;
11490;SDS011;5802;52.832;4.758;2023-07-29T06:15:48;1.50;;;1.13;;
11490;SDS011;5802;52.832;4.758;2023-07-29T06:18:14;1.80;;;1.20;;
11490;SDS011;5802;52.832;4.758;2023-07-29T06:20:41;1.30;;;1.00;;
11490;SDS011;5802;52.832;4.758;2023-07-29T06:23:08;1.98;;;1.20;;
11490;SDS011;5802;52.832;4.758;2023-07-29T06:25:35;1.40;;;1.05;;
11490;SDS011;5802;52.832;4.758;2023-07-29T06:28:01;2.50;;;1.20;;
11490;SDS011;5802;52.832;4.758;2023-07-29T06:30:29;1.60;;;0.98;;
11490;SDS011;5802;52.832;4.758;2023-07-29T06:32:58;1.35;;;1.10;;
11490;SDS011;5802;52.832;4.758;2023-07-29T06:35:25;1.95;;;1.30;;
11490;SDS011;5802;52.832;4.758;2023-07-29T06:37:51;2.35;;;1.20;;
11490;SDS011;5802;52.832;4.758;2023-07-29T06:40:18;1.25;;;1.00;;
11490;SDS011;5802;52.832;4.758;2023-07-29T06:42:45;1.02;;;0.90;;
11490;SDS011;5802;52.832;4.758;2023-07-29T06:45:11;1.80;;;1.10;;
11490;SDS011;5802;52.832;4.758;2023-07-29T06:47:39;1.85;;;1.00;;
11490;SDS011;5802;52.832;4.758;2023-07-29T06:50:06;2.05;;;1.13;;
11490;SDS011;5802;52.832;4.758;2023-07-29T06:52:33;1.33;;;1.20;;
11490;SDS011;5802;52.832;4.758;2023-07-29T06:55:01;1.38;;;1.00;;
11490;SDS011;5802;52.832;4.758;2023-07-29T06:57:28;1.58;;;1.17;;
11490;SDS011;5802;52.832;4.758;2023-07-29T06:59:55;1.60;;;1.10;;
11490;SDS011;5802;52.832;4.758;2023-07-29T07:02:22;1.67;;;1.10;;
11490;SDS011;5802;52.832;4.758;2023-07-29T07:04:50;3.67;;;1.27;;
11490;SDS011;5802;52.832;4.758;2023-07-29T07:07:16;2.67;;;1.40;;
11490;SDS011;5802;52.832;4.758;2023-07-29T07:09:43;2.17;;;0.88;;
11490;SDS011;5802;52.832;4.758;2023-07-29T07:12:10;2.28;;;1.20;;
11490;SDS011;5802;52.832;4.758;2023-07-29T07:14:36;1.52;;;1.23;;
11490;SDS011;5802;52.832;4.758;2023-07-29T07:17:03;1.58;;;1.20;;
11490;SDS011;5802;52.832;4.758;2023-07-29T07:19:30;1.50;;;1.00;;
11490;SDS011;5802;52.832;4.758;2023-07-29T07:21:58;1.77;;;1.00;;
11490;SDS011;5802;52.832;4.758;2023-07-29T07:24:25;2.22;;;1.10;;
11490;SDS011;5802;52.832;4.758;2023-07-29T07:26:52;1.40;;;1.10;;
11490;SDS011;5802;52.832;4.758;2023-07-29T07:29:19;1.85;;;1.20;;
11490;SDS011;5802;52.832;4.758;2023-07-29T07:31:49;1.70;;;0.90;;
11490;SDS011;5802;52.832;4.758;2023-07-29T07:34:17;1.52;;;1.00;;
11490;SDS011;5802;52.832;4.758;2023-07-29T07:36:44;1.25;;;0.80;;
11490;SDS011;5802;52.832;4.758;2023-07-29T07:39:12;1.35;;;1.00;;
11490;SDS011;5802;52.832;4.758;2023-07-29T07:41:38;2.45;;;1.20;;
11490;SDS011;5802;52.832;4.758;2023-07-29T07:44:06;1.65;;;1.15;;
11490;SDS011;5802;52.832;4.758;2023-07-29T07:46:33;1.63;;;1.27;;
11490;SDS011;5802;52.832;4.758;2023-07-29T07:48:59;1.20;;;1.08;;
11490;SDS011;5802;52.832;4.758;2023-07-29T07:51:26;1.23;;;1.10;;
11490;SDS011;5802;52.832;4.758;2023-07-29T07:53:53;1.50;;;1.20;;
11490;SDS011;5802;52.832;4.758;2023-07-29T07:56:21;2.78;;;1.20;;
11490;SDS011;5802;52.832;4.758;2023-07-29T07:58:47;2.13;;;1.05;;
11490;SDS011;5802;52.832;4.758;2023-07-29T08:01:13;1.30;;;1.05;;
11490;SDS011;5802;52.832;4.758;2023-07-29T08:03:40;1.77;;;1.25;;
11490;SDS011;5802;52.832;4.758;2023-07-29T08:06:06;1.92;;;1.27;;
11490;SDS011;5802;52.832;4.758;2023-07-29T08:08:33;1.73;;;0.90;;
11490;SDS011;5802;52.832;4.758;2023-07-29T08:11:00;1.75;;;1.05;;
11490;SDS011;5802;52.832;4.758;2023-07-29T08:13:28;1.10;;;0.95;;
11490;SDS011;5802;52.832;4.758;2023-07-29T08:15:54;1.80;;;1.00;;
11490;SDS011;5802;52.832;4.758;2023-07-29T08:18:21;2.90;;;1.15;;
11490;SDS011;5802;52.832;4.758;2023-07-29T08:20:51;2.88;;;1.10;;
11490;SDS011;5802;52.832;4.758;2023-07-29T08:23:19;1.83;;;1.33;;
11490;SDS011;5802;52.832;4.758;2023-07-29T08:25:50;1.10;;;0.90;;
11490;SDS011;5802;52.832;4.758;2023-07-29T08:28:18;1.75;;;1.00;;
11490;SDS011;5802;52.832;4.758;2023-07-29T08:30:46;1.95;;;1.08;;
11490;SDS011;5802;52.832;4.758;2023-07-29T08:33:12;1.50;;;0.90;;
11490;SDS011;5802;52.832;4.758;2023-07-29T08:35:39;1.50;;;0.90;;
11490;SDS011;5802;52.832;4.758;2023-07-29T08:38:06;1.85;;;1.17;;
11490;SDS011;5802;52.832;4.758;2023-07-29T08:40:32;1.85;;;1.20;;
11490;SDS011;5802;52.832;4.758;2023-07-29T08:43:01;1.70;;;1.00;;
11490;SDS011;5802;52.832;4.758;2023-07-29T08:45:34;1.83;;;1.17;;
11490;SDS011;5802;52.832;4.758;2023-07-29T08:48:08;1.65;;;1.10;;
11490;SDS011;5802;52.832;4.758;2023-07-29T08:50:36;1.98;;;1.10;;
11490;SDS011;5802;52.832;4.758;2023-07-29T08:53:04;1.33;;;1.05;;
11490;SDS011;5802;52.832;4.758;2023-07-29T08:55:31;1.48;;;1.10;;
11490;SDS011;5802;52.832;4.758;2023-07-29T08:57:58;1.27;;;1.02;;
11490;SDS011;5802;52.832;4.758;2023-07-29T09:00:26;2.38;;;1.27;;
11490;SDS011;5802;52.832;4.758;2023-07-29T09:02:53;1.95;;;1.10;;
11490;SDS011;5802;52.832;4.758;2023-07-29T09:05:21;2.03;;;1.08;;
11490;SDS011;5802;52.832;4.758;2023-07-29T09:07:48;1.48;;;0.95;;
11490;SDS011;5802;52.832;4.758;2023-07-29T09:10:19;1.50;;;1.10;;
11490;SDS011;5802;52.832;4.758;2023-07-29T09:12:48;1.30;;;1.02;;
11490;SDS011;5802;52.832;4.758;2023-07-29T09:15:25;2.72;;;1.10;;
11490;SDS011;5802;52.832;4.758;2023-07-29T09:17:54;2.63;;;1.30;;
11490;SDS011;5802;52.832;4.758;2023-07-29T09:20:26;1.83;;;1.13;;
11490;SDS011;5802;52.832;4.758;2023-07-29T09:22:54;1.50;;;1.15;;
11490;SDS011;5802;52.832;4.758;2023-07-29T09:25:24;2.30;;;1.30;;
11490;SDS011;5802;52.832;4.758;2023-07-29T09:27:51;1.80;;;1.10;;
11490;SDS011;5802;52.832;4.758;2023-07-29T09:30:17;1.55;;;1.17;;
11490;SDS011;5802;52.832;4.758;2023-07-29T09:32:44;2.45;;;1.30;;
11490;SDS011;5802;52.832;4.758;2023-07-29T09:35:11;1.75;;;1.33;;
11490;SDS011;5802;52.832;4.758;2023-07-29T09:37:40;1.30;;;1.00;;
11490;SDS011;5802;52.832;4.758;2023-07-29T09:40:07;1.95;;;1.23;;
11490;SDS011;5802;52.832;4.758;2023-07-29T09:42:40;2.05;;;1.20;;
11490;SDS011;5802;52.832;4.758;2023-07-29T09:45:18;1.50;;;1.05;;
11490;SDS011;5802;52.832;4.758;2023-07-29T09:47:46;1.45;;;1.10;;
11490;SDS011;5802;52.832;4.758;2023-07-29T09:50:13;2.03;;;1.02;;
11490;SDS011;5802;52.832;4.758;2023-07-29T09:52:41;1.77;;;1.02;;
11490;SDS011;5802;52.832;4.758;2023-07-29T09:55:09;2.70;;;1.30;;
11490;SDS011;5802;52.832;4.758;2023-07-29T09:57:36;2.47;;;1.27;;
11490;SDS011;5802;52.832;4.758;2023-07-29T10:00:04;1.40;;;1.02;;
11490;SDS011;5802;52.832;4.758;2023-07-29T10:02:36;1.10;;;0.90;;
11490;SDS011;5802;52.832;4.758;2023-07-29T10:05:04;2.22;;;1.00;;
11490;SDS011;5802;52.832;4.758;2023-07-29T10:07:33;2.05;;;1.23;;
11490;SDS011;5802;52.832;4.758;2023-07-29T10:10:02;1.48;;;1.00;;
11490;SDS011;5802;52.832;4.758;2023-07-29T10:12:31;2.55;;;1.35;;
11490;SDS011;5802;52.832;4.758;2023-07-29T10:14:59;1.60;;;1.10;;
11490;SDS011;5802;52.832;4.758;2023-07-29T10:17:28;1.30;;;1.00;;
11490;SDS011;5802;52.832;4.758;2023-07-29T10:19:56;1.48;;;0.95;;
11490;SDS011;5802;52.832;4.758;2023-07-29T10:22:24;1.17;;;1.05;;
11490;SDS011;5802;52.832;4.758;2023-07-29T10:24:54;1.23;;;1.00;;
11490;SDS011;5802;52.832;4.758;2023-07-29T10:27:26;1.80;;;1.20;;
11490;SDS011;5802;52.832;4.758;2023-07-29T10:29:54;1.88;;;1.15;;
11490;SDS011;5802;52.832;4.758;2023-07-29T10:32:22;2.20;;;1.30;;
11490;SDS011;5802;52.832;4.758;2023-07-29T10:34:52;2.50;;;1.30;;
11490;SDS011;5802;52.832;4.758;2023-07-29T10:37:19;1.90;;;1.60;;
11490;SDS011;5802;52.832;4.758;2023-07-29T10:39:51;1.77;;;1.35;;
11490;SDS011;5802;52.832;4.758;2023-07-29T10:42:20;2.15;;;1.65;;
11490;SDS011;5802;52.832;4.758;2023-07-29T10:44:51;2.40;;;1.80;;
11490;SDS011;5802;52.832;4.758;2023-07-29T10:47:20;2.28;;;1.52;;
11490;SDS011;5802;52.832;4.758;2023-07-29T10:49:49;2.20;;;1.83;;
11490;SDS011;5802;52.832;4.758;2023-07-29T10:52:27;2.65;;;1.80;;
11490;SDS011;5802;52.832;4.758;2023-07-29T10:54:56;2.08;;;1.73;;
11490;SDS011;5802;52.832;4.758;2023-07-29T10:57:30;2.22;;;1.80;;
11490;SDS011;5802;52.832;4.758;2023-07-29T10:59:58;2.78;;;1.75;;
11490;SDS011;5802;52.832;4.758;2023-07-29T11:02:29;2.28;;;1.75;;
11490;SDS011;5802;52.832;4.758;2023-07-29T11:04:57;2.88;;;1.75;;
11490;SDS011;5802;52.832;4.758;2023-07-29T11:07:24;3.17;;;1.85;;
11490;SDS011;5802;52.832;4.758;2023-07-29T11:09:56;2.25;;;1.52;;
11490;SDS011;5802;52.832;4.758;2023-07-29T11:12:36;3.28;;;1.90;;
11490;SDS011;5802;52.832;4.758;2023-07-29T11:15:17;2.50;;;1.80;;
11490;SDS011;5802;52.832;4.758;2023-07-29T11:17:45;3.03;;;1.95;;
11490;SDS011;5802;52.832;4.758;2023-07-29T11:20:14;2.00;;;1.55;;
11490;SDS011;5802;52.832;4.758;2023-07-29T11:22:42;1.98;;;1.60;;
11490;SDS011;5802;52.832;4.758;2023-07-29T11:25:09;3.47;;;1.70;;
11490;SDS011;5802;52.832;4.758;2023-07-29T11:27:38;2.90;;;1.60;;
11490;SDS011;5802;52.832;4.758;2023-07-29T11:30:05;2.42;;;1.50;;
11490;SDS011;5802;52.832;4.758;2023-07-29T11:32:35;2.33;;;1.48;;
11490;SDS011;5802;52.832;4.758;2023-07-29T11:35:02;2.60;;;1.75;;
11490;SDS011;5802;52.832;4.758;2023-07-29T11:37:30;2.58;;;1.73;;
11490;SDS011;5802;52.832;4.758;2023-07-29T11:39:58;2.00;;;1.70;;
11490;SDS011;5802;52.832;4.758;2023-07-29T11:42:25;2.63;;;1.63;;
11490;SDS011;5802;52.832;4.758;2023-07-29T11:44:52;2.03;;;1.50;;
11490;SDS011;5802;52.832;4.758;2023-07-29T11:47:19;2.30;;;1.55;;
11490;SDS011;5802;52.832;4.758;2023-07-29T11:49:47;1.85;;;1.25;;
11490;SDS011;5802;52.832;4.758;2023-07-29T11:52:14;2.13;;;1.23;;
11490;SDS011;5802;52.832;4.758;2023-07-29T11:54:43;1.60;;;1.17;;
11490;SDS011;5802;52.832;4.758;2023-07-29T11:57:10;2.22;;;1.23;;
11490;SDS011;5802;52.832;4.758;2023-07-29T11:59:38;1.55;;;1.40;;
11490;SDS011;5802;52.832;4.758;2023-07-29T12:02:08;1.50;;;1.38;;
11490;SDS011;5802;52.832;4.758;2023-07-29T12:04:36;3.05;;;1.85;;
11490;SDS011;5802;52.832;4.758;2023-07-29T12:07:06;2.40;;;1.50;;
11490;SDS011;5802;52.832;4.758;2023-07-29T12:09:33;2.10;;;1.73;;
11490;SDS011;5802;52.832;4.758;2023-07-29T12:12:01;2.22;;;1.63;;
11490;SDS011;5802;52.832;4.758;2023-07-29T12:14:28;2.42;;;1.63;;
11490;SDS011;5802;52.832;4.758;2023-07-29T12:16:55;2.30;;;1.50;;
11490;SDS011;5802;52.832;4.758;2023-07-29T12:19:21;1.88;;;1.50;;
11490;SDS011;5802;52.832;4.758;2023-07-29T12:21:50;2.10;;;1.58;;
11490;SDS011;5802;52.832;4.758;2023-07-29T12:24:18;2.38;;;1.67;;
11490;SDS011;5802;52.832;4.758;2023-07-29T12:26:44;4.45;;;1.50;;
11490;SDS011;5802;52.832;4.758;2023-07-29T12:29:16;2.85;;;1.55;;
11490;SDS011;5802;52.832;4.758;2023-07-29T12:31:44;3.35;;;1.50;;
11490;SDS011;5802;52.832;4.758;2023-07-29T12:34:16;2.72;;;1.67;;
11490;SDS011;5802;52.832;4.758;2023-07-29T12:36:44;3.20;;;1.58;;
11490;SDS011;5802;52.832;4.758;2023-07-29T12:39:16;2.75;;;1.67;;
11490;SDS011;5802;52.832;4.758;2023-07-29T12:41:44;2.67;;;1.63;;
11490;SDS011;5802;52.832;4.758;2023-07-29T12:44:11;2.08;;;1.50;;
11490;SDS011;5802;52.832;4.758;2023-07-29T12:46:38;3.67;;;1.60;;
11490;SDS011;5802;52.832;4.758;2023-07-29T12:49:04;1.70;;;1.20;;
11490;SDS011;5802;52.832;4.758;2023-07-29T12:51:32;2.42;;;1.40;;
11490;SDS011;5802;52.832;4.758;2023-07-29T12:53:59;2.70;;;1.55;;
11490;SDS011;5802;52.832;4.758;2023-07-29T12:56:27;2.83;;;1.70;;
11490;SDS011;5802;52.832;4.758;2023-07-29T12:58:54;5.07;;;1.60;;
11490;SDS011;5802;52.832;4.758;2023-07-29T13:01:21;3.58;;;1.63;;
11490;SDS011;5802;52.832;4.758;2023-07-29T13:03:48;2.95;;;1.40;;
11490;SDS011;5802;52.832;4.758;2023-07-29T13:06:15;2.65;;;1.50;;
11490;SDS011;5802;52.832;4.758;2023-07-29T13:08:42;3.17;;;1.42;;
11490;SDS011;5802;52.832;4.758;2023-07-29T13:11:09;1.50;;;1.40;;
11490;SDS011;5802;52.832;4.758;2023-07-29T13:13:37;2.28;;;1.55;;
11490;SDS011;5802;52.832;4.758;2023-07-29T13:16:04;2.90;;;1.70;;
11490;SDS011;5802;52.832;4.758;2023-07-29T13:18:31;3.58;;;1.58;;
11490;SDS011;5802;52.832;4.758;2023-07-29T13:20:58;4.70;;;1.60;;
11490;SDS011;5802;52.832;4.758;2023-07-29T13:23:25;3.22;;;1.60;;
11490;SDS011;5802;52.832;4.758;2023-07-29T13:25:53;2.53;;;1.42;;
11490;SDS011;5802;52.832;4.758;2023-07-29T13:28:19;3.22;;;1.70;;
11490;SDS011;5802;52.832;4.758;2023-07-29T13:30:47;2.78;;;1.48;;
11490;SDS011;5802;52.832;4.758;2023-07-29T13:33:14;2.50;;;1.40;;
11490;SDS011;5802;52.832;4.758;2023-07-29T13:35:40;3.42;;;1.50;;
11490;SDS011;5802;52.832;4.758;2023-07-29T13:38:07;1.50;;;1.27;;
11490;SDS011;5802;52.832;4.758;2023-07-29T13:40:34;1.67;;;1.30;;
11490;SDS011;5802;52.832;4.758;2023-07-29T13:43:01;2.45;;;1.40;;
11490;SDS011;5802;52.832;4.758;2023-07-29T13:45:27;1.92;;;1.30;;
11490;SDS011;5802;52.832;4.758;2023-07-29T13:47:56;1.58;;;1.30;;
11490;SDS011;5802;52.832;4.758;2023-07-29T13:50:23;2.10;;;1.45;;
11490;SDS011;5802;52.832;4.758;2023-07-29T13:52:49;1.75;;;1.20;;
11490;SDS011;5802;52.832;4.758;2023-07-29T13:55:16;1.60;;;1.30;;
11490;SDS011;5802;52.832;4.758;2023-07-29T13:57:43;1.85;;;1.33;;
11490;SDS011;5802;52.832;4.758;2023-07-29T14:00:10;2.47;;;1.30;;
11490;SDS011;5802;52.832;4.758;2023-07-29T14:02:37;2.95;;;1.40;;
11490;SDS011;5802;52.832;4.758;2023-07-29T14:05:05;1.98;;;1.40;;
11490;SDS011;5802;52.832;4.758;2023-07-29T14:07:32;2.10;;;1.45;;
11490;SDS011;5802;52.832;4.758;2023-07-29T14:09:59;1.58;;;1.20;;
11490;SDS011;5802;52.832;4.758;2023-07-29T14:12:26;1.70;;;1.30;;
11490;SDS011;5802;52.832;4.758;2023-07-29T14:14:52;1.88;;;1.33;;
11490;SDS011;5802;52.832;4.758;2023-07-29T14:17:19;1.60;;;1.20;;
11490;SDS011;5802;52.832;4.758;2023-07-29T14:19:46;1.65;;;1.13;;
11490;SDS011;5802;52.832;4.758;2023-07-29T14:22:14;1.20;;;1.10;;
11490;SDS011;5802;52.832;4.758;2023-07-29T14:24:40;1.75;;;1.20;;
11490;SDS011;5802;52.832;4.758;2023-07-29T14:27:07;1.20;;;1.10;;
11490;SDS011;5802;52.832;4.758;2023-07-29T14:29:34;1.38;;;1.10;;
11490;SDS011;5802;52.832;4.758;2023-07-29T14:32:00;1.75;;;1.20;;
11490;SDS011;5802;52.832;4.758;2023-07-29T14:34:27;2.65;;;1.40;;
11490;SDS011;5802;52.832;4.758;2023-07-29T14:36:54;2.33;;;1.20;;
11490;SDS011;5802;52.832;4.758;2023-07-29T14:39:22;2.17;;;1.30;;
11490;SDS011;5802;52.832;4.758;2023-07-29T14:41:48;2.05;;;1.33;;
11490;SDS011;5802;52.832;4.758;2023-07-29T14:44:15;1.38;;;1.02;;
11490;SDS011;5802;52.832;4.758;2023-07-29T14:46:42;1.48;;;1.20;;
11490;SDS011;5802;52.832;4.758;2023-07-29T14:49:08;1.80;;;1.27;;
11490;SDS011;5802;52.832;4.758;2023-07-29T14:51:35;1.65;;;1.30;;
11490;SDS011;5802;52.832;4.758;2023-07-29T14:54:02;1.55;;;1.10;;
11490;SDS011;5802;52.832;4.758;2023-07-29T14:56:30;1.27;;;1.08;;
11490;SDS011;5802;52.832;4.758;2023-07-29T14:58:57;1.88;;;1.40;;
11490;SDS011;5802;52.832;4.758;2023-07-29T15:01:23;1.48;;;0.93;;
11490;SDS011;5802;52.832;4.758;2023-07-29T15:03:50;1.55;;;1.20;;